Time;durP1;ratioP1;P1;durP2;ratioP2;P2;SDS_P1;SDS_P2;PMS_P1;PMS_P2;Temp;Humidity;BMP_temperature;BMP_pressure;BME280_temperature;BME280_humidity;BME280_pressure;Samples;Min_cycle;Max_cycle;Signal;HPM_P1;HPM_P2
2022/07/28 00:01:58;;;;;;;;;;;12.90;99.90;;;;;;2586079;54;20128;31
2022/07/28 00:04:38;;;;;;;3.75;2.30;;;12.80;99.90;;;;;;2585833;54;20793;31
2022/07/28 00:07:11;;;;;;;4.53;2.70;;;12.80;99.90;;;;;;2586552;54;19997;31
2022/07/28 00:09:46;;;;;;;5.93;2.40;;;12.70;99.90;;;;;;2586896;54;20031;31
2022/07/28 00:12:27;;;;;;;4.13;2.38;;;12.70;99.90;;;;;;2605189;46;19941;31
2022/07/28 00:15:00;;;;;;;3.93;2.60;;;12.70;99.90;;;;;;2586631;54;20117;31
2022/07/28 00:17:36;;;;;;;4.38;2.20;;;12.70;99.90;;;;;;2586652;54;20836;31
2022/07/28 00:20:14;;;;;;;4.90;2.40;;;12.60;99.90;;;;;;2684440;39;20420;31
2022/07/28 00:22:49;;;;;;;2.95;1.67;;;12.60;99.90;;;;;;2586609;54;20694;31
2022/07/28 00:25:23;;;;;;;4.47;3.30;;;12.50;99.90;;;;;;2586597;54;20041;31
2022/07/28 00:28:00;;;;;;;5.90;2.83;;;12.60;99.90;;;;;;2586551;54;20737;31
2022/07/28 00:30:34;;;;;;;5.47;2.83;;;12.50;99.90;;;;;;2604871;46;20511;31
2022/07/28 00:33:09;;;;;;;7.75;3.10;;;12.50;99.90;;;;;;2586901;54;20920;31
2022/07/28 00:35:42;;;;;;;4.65;3.63;;;12.40;99.90;;;;;;2605008;46;20042;31
2022/07/28 00:38:29;;;;;;;3.10;2.30;;;12.30;99.90;;;;;;2586813;54;20031;31
2022/07/28 00:41:13;;;;;;;3.75;2.30;;;12.30;99.90;;;;;;2586570;54;20536;31
2022/07/28 00:43:49;;;;;;;6.30;2.55;;;12.30;99.90;;;;;;2586604;54;20034;31
2022/07/28 00:46:22;;;;;;;;;;;12.30;99.90;;;;;;2586621;54;20030;31
2022/07/28 00:48:55;;;;;;;6.30;2.10;;;12.30;99.90;;;;;;2684344;39;20483;31
2022/07/28 00:51:29;;;;;;;4.30;2.80;;;12.20;99.90;;;;;;2586540;54;20772;31
2022/07/28 00:54:02;;;;;;;3.50;2.10;;;12.20;99.90;;;;;;2586582;54;20026;31
2022/07/28 00:56:37;;;;;;;3.00;1.93;;;12.20;99.90;;;;;;2586488;54;20094;31
2022/07/28 00:59:13;;;;;;;8.02;3.65;;;12.20;99.90;;;;;;2586492;54;20843;31
2022/07/28 01:01:50;;;;;;;5.40;2.88;;;12.20;99.90;;;;;;2586613;54;20062;31
2022/07/28 01:04:26;;;;;;;4.67;2.40;;;12.10;99.90;;;;;;2604409;46;20517;31
2022/07/28 01:07:09;;;;;;;3.90;2.25;;;12.10;99.90;;;;;;2586479;54;20898;31
2022/07/28 01:09:50;;;;;;;6.45;2.70;;;12.10;99.90;;;;;;2586397;54;20914;31
2022/07/28 01:12:32;;;;;;;2.80;2.00;;;12.10;99.90;;;;;;2755275;31;20552;31
2022/07/28 01:15:14;;;;;;;4.45;2.70;;;12.00;99.90;;;;;;2586519;54;20883;31
2022/07/28 01:17:52;;;;;;;4.20;2.10;;;12.00;99.90;;;;;;2684576;39;20387;31
2022/07/28 01:20:30;;;;;;;5.77;2.53;;;11.90;99.90;;;;;;2586495;54;21308;31
2022/07/28 01:23:22;;;;;;;4.30;2.30;;;11.90;99.90;;;;;;2604861;46;20161;31
2022/07/28 01:26:09;;;;;;;4.20;1.77;;;11.90;99.90;;;;;;2586487;54;20030;31
2022/07/28 01:28:48;;;;;;;3.20;2.30;;;11.80;99.90;;;;;;2586811;54;20026;31
2022/07/28 01:31:26;;;;;;;2.75;2.00;;;11.80;99.90;;;;;;2586685;54;21139;31
2022/07/28 01:34:00;;;;;;;6.20;2.50;;;11.80;99.90;;;;;;2586400;54;20896;31
2022/07/28 01:36:37;;;;;;;6.18;2.92;;;11.70;99.90;;;;;;2586414;54;20069;31
2022/07/28 01:39:09;;;;;;;4.00;2.23;;;11.80;99.90;;;;;;2684185;39;20392;31
2022/07/28 01:41:42;;;;;;;4.50;2.80;;;11.70;99.90;;;;;;2585416;54;20037;31
2022/07/28 01:44:18;;;;;;;3.33;2.42;;;11.70;99.90;;;;;;2586338;54;20158;31
2022/07/28 01:46:55;;;;;;;8.80;3.50;;;11.60;99.90;;;;;;2586474;54;20890;31
2022/07/28 01:49:30;;;;;;;7.07;3.50;;;11.60;99.90;;;;;;2585523;54;20821;31
2022/07/28 01:52:08;;;;;;;5.70;2.70;;;11.60;99.90;;;;;;2586675;54;20879;31
2022/07/28 01:54:42;;;;;;;5.45;3.10;;;11.60;99.90;;;;;;2586573;54;20064;31
2022/07/28 01:57:16;;;;;;;4.30;2.35;;;11.70;99.90;;;;;;2604919;46;20113;31
2022/07/28 01:59:52;;;;;;;4.55;2.80;;;11.60;99.90;;;;;;2604789;46;20042;31
2022/07/28 02:02:28;;;;;;;;;;;11.60;99.90;;;;;;2586446;54;20143;31
2022/07/28 02:05:02;;;;;;;5.20;2.63;;;11.50;99.90;;;;;;2586289;54;20033;31
2022/07/28 02:07:36;;;;;;;3.90;2.10;;;11.50;99.90;;;;;;2586181;54;20169;31
2022/07/28 02:10:11;;;;;;;5.20;2.20;;;11.50;99.90;;;;;;2586406;54;20964;31
2022/07/28 02:12:47;;;;;;;3.20;2.30;;;11.50;99.90;;;;;;2586325;54;20264;31
2022/07/28 02:15:20;;;;;;;8.23;3.80;;;11.50;99.90;;;;;;2601636;46;20050;31
2022/07/28 02:17:59;;;;;;;5.50;3.00;;;11.40;99.90;;;;;;2586284;54;20022;31
2022/07/28 02:20:36;;;;;;;8.00;2.80;;;11.40;99.90;;;;;;2586418;54;20060;31
2022/07/28 02:23:08;;;;;;;6.00;2.50;;;11.30;99.90;;;;;;2586288;54;19997;31
2022/07/28 02:25:41;;;;;;;4.35;2.70;;;11.30;99.90;;;;;;2586359;54;20077;31
2022/07/28 02:28:16;;;;;;;4.50;2.83;;;11.20;99.90;;;;;;2586402;54;20026;31
2022/07/28 02:30:53;;;;;;;5.72;2.33;;;11.20;99.90;;;;;;2586108;54;20134;31
2022/07/28 02:33:30;;;;;;;3.80;2.30;;;11.20;99.90;;;;;;2586212;54;20037;31
2022/07/28 02:36:27;;;;;;;5.60;2.13;;;11.20;99.90;;;;;;2586205;54;20943;31
2022/07/28 02:39:08;;;;;;;3.63;2.28;;;11.20;99.90;;;;;;2684076;39;20440;31
2022/07/28 02:41:41;;;;;;;3.78;2.28;;;11.20;99.90;;;;;;2592487;46;20034;31
2022/07/28 02:44:16;;;;;;;3.00;1.80;;;11.20;99.90;;;;;;2586251;54;21005;31
2022/07/28 02:46:51;;;;;;;4.10;2.30;;;11.10;99.90;;;;;;2586259;54;21307;31
2022/07/28 02:49:35;;;;;;;3.22;1.85;;;11.10;99.90;;;;;;2604561;46;20026;31
2022/07/28 02:52:09;;;;;;;6.10;2.63;;;11.10;99.90;;;;;;2586158;54;20571;31
2022/07/28 02:54:46;;;;;;;2.55;2.05;;;11.00;99.90;;;;;;2586153;54;20843;31
2022/07/28 02:57:20;;;;;;;6.00;2.50;;;11.00;99.90;;;;;;2604077;46;20879;31
2022/07/28 02:59:54;;;;;;;3.10;2.00;;;11.00;99.90;;;;;;2586415;54;20926;31
2022/07/28 03:02:32;;;;;;;4.45;1.90;;;11.00;99.90;;;;;;2586277;54;20056;31
2022/07/28 03:05:11;;;;;;;6.05;2.25;;;11.00;99.90;;;;;;2604739;46;20757;31
2022/07/28 03:07:51;;;;;;;2.58;1.60;;;11.00;99.90;;;;;;2586163;54;20988;31
2022/07/28 03:13:08;;;;;;;3.00;2.15;;;10.90;99.90;;;;;;2605067;46;20863;31
2022/07/28 03:15:43;;;;;;;4.80;2.10;;;10.90;99.90;;;;;;2585791;54;20093;31
2022/07/28 03:18:17;;;;;;;3.10;1.80;;;11.00;99.90;;;;;;2599010;46;20061;31
2022/07/28 03:21:00;;;;;;;3.38;2.15;;;10.90;99.90;;;;;;2604301;46;20733;31
2022/07/28 03:23:34;;;;;;;2.95;1.85;;;10.90;99.90;;;;;;2683982;39;21467;31
2022/07/28 03:26:10;;;;;;;3.50;2.20;;;10.90;99.90;;;;;;2586031;54;20033;31
2022/07/28 03:28:43;;;;;;;3.33;1.80;;;10.80;99.90;;;;;;2586191;54;20954;31
2022/07/28 03:31:17;;;;;;;3.70;1.80;;;10.80;99.90;;;;;;2602294;47;20132;31
2022/07/28 03:33:49;;;;;;;3.15;2.03;;;10.80;99.90;;;;;;2585147;54;20935;31
2022/07/28 03:36:26;;;;;;;4.77;2.20;;;10.80;99.90;;;;;;2584808;54;20862;31
2022/07/28 03:39:01;;;;;;;4.90;2.30;;;10.80;99.90;;;;;;2584969;54;20053;31
2022/07/28 03:41:40;;;;;;;4.40;1.70;;;10.80;99.90;;;;;;2586156;54;21155;31
2022/07/28 03:44:13;;;;;;;4.30;1.83;;;10.90;99.90;;;;;;2585034;54;20105;31
2022/07/28 03:47:00;;;;;;;3.05;2.40;;;10.90;99.90;;;;;;2585961;54;20057;31
2022/07/28 03:49:33;;;;;;;4.95;2.55;;;11.00;99.90;;;;;;2604282;47;20030;31
2022/07/28 03:52:08;;;;;;;6.10;3.38;;;11.10;99.90;;;;;;2585175;54;20026;31
2022/07/28 03:54:43;;;;;;;9.27;3.40;;;11.20;99.90;;;;;;2584994;54;20046;31
2022/07/28 03:57:16;;;;;;;5.40;2.80;;;11.20;99.90;;;;;;2586188;54;20882;31
2022/07/28 03:59:50;;;;;;;3.65;2.22;;;11.30;99.90;;;;;;2604599;47;20031;31
2022/07/28 04:02:25;;;;;;;3.30;1.85;;;11.50;99.90;;;;;;2683731;39;21417;31
2022/07/28 04:05:00;;;;;;;5.30;2.05;;;11.60;99.90;;;;;;2585910;54;20791;31
2022/07/28 04:07:34;;;;;;;3.80;1.77;;;11.80;99.90;;;;;;2604307;47;20117;31
2022/07/28 04:10:11;;;;;;;3.30;1.85;;;12.00;99.90;;;;;;2586213;54;20394;31
2022/07/28 04:12:51;;;;;;;4.20;2.27;;;12.10;99.90;;;;;;2586100;54;20026;31
2022/07/28 04:15:29;;;;;;;3.40;2.20;;;12.30;99.90;;;;;;2585902;54;20155;31
2022/07/28 04:18:06;;;;;;;3.80;1.85;;;12.50;99.90;;;;;;2586225;54;20043;31
2022/07/28 04:20:39;;;;;;;5.93;2.58;;;12.70;99.90;;;;;;2586149;54;20747;31
2022/07/28 04:23:18;;;;;;;8.48;3.95;;;12.90;99.90;;;;;;2585792;54;20728;31
2022/07/28 04:25:52;;;;;;;8.68;3.45;;;13.10;99.90;;;;;;2585908;54;20765;31
2022/07/28 04:28:30;;;;;;;5.83;3.60;;;13.30;99.90;;;;;;2586560;54;20065;31
2022/07/28 04:31:05;;;;;;;6.07;3.58;;;13.50;99.90;;;;;;2586816;54;20156;31
2022/07/28 04:33:42;;;;;;;5.95;3.75;;;13.70;99.90;;;;;;2586531;54;20527;31
2022/07/28 04:36:16;;;;;;;5.15;3.95;;;13.90;99.90;;;;;;2586497;54;20756;31
2022/07/28 04:38:56;;;;;;;8.50;4.37;;;14.10;99.90;;;;;;2586674;54;20038;31
2022/07/28 04:41:29;;;;;;;8.30;5.22;;;14.30;99.90;;;;;;2586503;54;20267;31
2022/07/28 04:44:03;;;;;;;8.90;4.80;;;14.60;99.90;;;;;;2684318;39;20587;31
2022/07/28 04:46:37;;;;;;;9.13;4.47;;;14.80;99.90;;;;;;2586613;54;20124;31
2022/07/28 04:49:13;;;;;;;9.85;4.22;;;15.00;99.90;;;;;;2586681;54;20574;31
2022/07/28 04:51:49;;;;;;;8.00;5.10;;;15.20;99.90;;;;;;2684318;39;20446;31
2022/07/28 04:54:26;;;;;;;8.40;5.05;;;15.40;99.90;;;;;;2586888;54;21069;31
2022/07/28 04:57:01;;;;;;;9.33;4.17;;;15.70;99.90;;;;;;2586584;54;20034;31
2022/07/28 04:59:39;;;;;;;7.60;3.50;;;16.00;99.90;;;;;;2586826;54;20834;31
2022/07/28 05:02:14;;;;;;;9.65;5.15;;;16.30;99.90;;;;;;2604678;46;20050;31
2022/07/28 05:04:47;;;;;;;7.20;4.50;;;16.60;99.90;;;;;;2586451;54;20959;31
2022/07/28 05:07:20;;;;;;;6.63;3.97;;;16.80;99.90;;;;;;2585732;54;20049;31
2022/07/28 05:09:55;;;;;;;7.03;4.40;;;17.10;99.90;;;;;;2585794;54;20529;31
2022/07/28 05:12:30;;;;;;;;;;;17.20;99.90;;;;;;2586819;54;20026;31
2022/07/28 05:15:05;;;;;;;9.30;3.90;;;17.30;99.90;;;;;;2605204;46;19934;31
2022/07/28 05:17:43;;;;;;;8.00;4.50;;;17.50;99.90;;;;;;2586729;54;20874;31
2022/07/28 05:20:19;;;;;;;9.13;4.07;;;17.60;99.90;;;;;;2586719;54;21092;31
2022/07/28 05:22:52;;;;;;;7.40;4.57;;;17.80;99.90;;;;;;2586654;54;20882;31
2022/07/28 05:25:31;;;;;;;5.85;3.75;;;17.90;99.90;;;;;;2586379;54;20030;31
2022/07/28 05:28:05;;;;;;;6.25;3.90;;;18.20;99.90;;;;;;2604965;46;21017;31
2022/07/28 05:30:38;;;;;;;10.13;4.25;;;18.30;99.90;;;;;;2586707;54;21064;31
2022/07/28 05:33:11;;;;;;;8.60;4.10;;;18.60;99.90;;;;;;2684253;39;20572;31
2022/07/28 05:35:44;;;;;;;7.40;3.42;;;18.70;99.90;;;;;;2586732;54;20874;31
2022/07/28 05:38:26;;;;;;;5.07;2.97;;;18.90;99.90;;;;;;2586465;54;20961;31
2022/07/28 05:41:03;;;;;;;6.20;2.85;;;19.00;99.90;;;;;;2586494;54;20162;31
2022/07/28 05:43:43;;;;;;;6.50;2.90;;;19.30;99.90;;;;;;2586477;54;20061;31
2022/07/28 05:46:20;;;;;;;6.00;3.05;;;19.60;99.90;;;;;;2586642;54;20085;31
2022/07/28 05:48:55;;;;;;;7.85;3.15;;;19.80;99.90;;;;;;2684117;39;20636;31
2022/07/28 05:51:33;;;;;;;7.13;2.90;;;19.90;99.90;;;;;;2586601;54;20866;31
2022/07/28 05:54:15;;;;;;;4.80;3.10;;;20.20;99.90;;;;;;2604699;46;21422;31
2022/07/28 05:56:55;;;;;;;7.53;2.80;;;20.30;99.90;;;;;;2684235;39;20532;31
2022/07/28 05:59:30;;;;;;;6.87;2.60;;;20.50;99.90;;;;;;2586633;54;20568;31
2022/07/28 06:02:03;;;;;;;6.90;2.85;;;20.60;99.90;;;;;;2586255;54;20874;31
2022/07/28 06:04:38;;;;;;;8.60;2.60;;;20.70;99.90;;;;;;2604515;46;20571;31
2022/07/28 06:07:16;;;;;;;4.78;2.67;;;20.80;99.90;;;;;;2586360;54;20061;31
2022/07/28 06:09:52;;;;;;;8.40;3.00;;;21.00;99.90;;;;;;2586396;54;20866;31
2022/07/28 06:12:31;;;;;;;7.47;2.63;;;21.20;99.90;;;;;;2586309;54;20493;31
2022/07/28 06:15:04;;;;;;;8.05;2.75;;;21.40;99.90;;;;;;2585397;54;20049;31
2022/07/28 06:17:39;;;;;;;8.45;2.40;;;21.60;99.90;;;;;;2586414;54;20093;31
2022/07/28 06:20:14;;;;;;;11.27;2.47;;;21.80;99.90;;;;;;2586521;54;21029;31
2022/07/28 06:22:49;;;;;;;6.50;2.28;;;22.00;99.90;;;;;;2604964;46;20952;31
2022/07/28 06:25:26;;;;;;;6.07;2.10;;;22.10;99.90;;;;;;2586355;54;20109;31
2022/07/28 06:27:58;;;;;;;6.37;2.10;;;22.30;99.90;;;;;;2586323;54;20032;31
2022/07/28 06:30:36;;;;;;;5.45;2.15;;;22.60;99.90;;;;;;2586376;54;20250;31
2022/07/28 06:33:11;;;;;;;6.20;2.42;;;22.70;99.90;;;;;;2703123;39;21456;31
2022/07/28 06:35:49;;;;;;;6.80;2.55;;;22.80;99.90;;;;;;2586513;54;21507;31
2022/07/28 06:38:24;;;;;;;7.00;2.00;;;23.00;99.90;;;;;;2586004;54;20854;31
2022/07/28 06:40:59;;;;;;;6.55;2.20;;;23.20;99.90;;;;;;2586312;54;20037;31
2022/07/28 06:43:32;;;;;;;4.55;2.00;;;23.30;99.90;;;;;;2754975;31;21768;31
2022/07/28 06:46:17;;;;;;;7.00;2.60;;;23.60;99.90;;;;;;2586345;54;20564;31
2022/07/28 06:48:54;;;;;;;8.23;2.67;;;23.90;99.90;;;;;;2585964;54;20932;31
2022/07/28 06:51:29;;;;;;;6.35;2.30;;;24.10;99.90;;;;;;2586391;54;21017;31
2022/07/28 06:54:03;;;;;;;7.82;2.13;;;24.20;99.90;;;;;;2605049;46;20809;31
2022/07/28 06:56:44;;;;;;;8.18;1.85;;;24.30;99.90;;;;;;2586282;54;20781;31
2022/07/28 06:59:23;;;;;;;4.75;1.60;;;24.50;99.90;;;;;;2586364;54;20027;31
2022/07/28 07:02:01;;;;;;;6.32;1.80;;;24.50;99.90;;;;;;2586161;54;20093;31
2022/07/28 07:04:41;;;;;;;7.05;2.00;;;24.60;99.90;;;;;;2586116;54;20722;31
2022/07/28 07:07:13;;;;;;;5.00;1.95;;;24.60;99.90;;;;;;2586256;54;20083;31
2022/07/28 07:09:50;;;;;;;6.03;2.13;;;24.80;99.90;;;;;;2604761;46;20855;31
2022/07/28 07:12:25;;;;;;;7.40;1.90;;;25.00;99.90;;;;;;2586171;54;20124;31
2022/07/28 07:15:00;;;;;;;5.15;2.00;;;25.10;99.90;;;;;;2586425;54;20877;31
2022/07/28 07:17:40;;;;;;;8.70;1.70;;;25.30;99.90;;;;;;2585349;54;20117;31
2022/07/28 07:20:14;;;;;;;6.15;1.60;;;25.40;99.90;;;;;;2683130;39;20506;31
2022/07/28 07:22:50;;;;;;;5.80;1.70;;;25.60;99.90;;;;;;2596253;46;19935;31
2022/07/28 07:25:22;;;;;;;6.50;1.60;;;25.70;99.70;;;;;;2603683;46;21386;31
2022/07/28 07:27:57;;;;;;;4.30;1.15;;;25.90;98.30;;;;;;2586433;54;20030;31
2022/07/28 07:30:31;;;;;;;8.23;1.53;;;26.00;97.30;;;;;;2604842;47;20944;31
2022/07/28 07:33:07;;;;;;;11.67;2.00;;;26.20;97.00;;;;;;2586238;54;20080;31
2022/07/28 07:35:42;;;;;;;9.73;1.80;;;26.40;97.30;;;;;;2585950;54;20242;31
2022/07/28 07:38:17;;;;;;;5.97;1.50;;;26.50;97.10;;;;;;2586041;54;21150;31
2022/07/28 07:40:50;;;;;;;3.70;1.17;;;26.60;95.90;;;;;;2585440;54;21181;31
2022/07/28 07:43:23;;;;;;;5.10;1.13;;;26.80;95.40;;;;;;2585245;54;20148;31
2022/07/28 07:45:57;;;;;;;4.70;1.25;;;26.90;95.10;;;;;;2585794;54;20640;31
2022/07/28 07:48:34;;;;;;;5.30;1.20;;;27.00;94.90;;;;;;2586170;54;20933;31
2022/07/28 07:51:07;;;;;;;4.75;1.00;;;27.10;95.50;;;;;;2585885;54;20160;31
2022/07/28 07:53:47;;;;;;;6.05;1.50;;;27.20;93.90;;;;;;2590017;47;20490;31
2022/07/28 07:56:22;;;;;;;3.80;1.15;;;27.40;93.60;;;;;;2586039;54;20793;31
2022/07/28 07:58:57;;;;;;;6.40;1.30;;;27.50;93.40;;;;;;2586041;54;20916;31
2022/07/28 08:01:30;;;;;;;2.00;0.90;;;27.50;93.50;;;;;;2586540;54;20871;31
2022/07/28 08:04:10;;;;;;;6.23;1.00;;;27.40;92.50;;;;;;2586893;54;20846;31
2022/07/28 08:06:46;;;;;;;9.85;1.25;;;27.40;91.30;;;;;;2585969;54;20980;31
2022/07/28 08:09:21;;;;;;;5.10;0.98;;;27.50;92.50;;;;;;2586769;54;20875;31
2022/07/28 08:11:56;;;;;;;3.23;0.87;;;27.60;91.60;;;;;;2586954;54;20085;31
2022/07/28 08:14:30;;;;;;;3.05;1.00;;;27.70;92.00;;;;;;2586836;54;20081;31
2022/07/28 08:17:05;;;;;;;4.85;1.15;;;27.80;91.40;;;;;;2586863;54;20885;31
2022/07/28 08:19:48;;;;;;;3.50;1.25;;;27.70;90.70;;;;;;2586832;54;20903;31
2022/07/28 08:22:22;;;;;;;6.13;1.20;;;27.60;91.40;;;;;;2604874;46;20560;31
2022/07/28 08:24:56;;;;;;;2.90;0.98;;;27.60;92.00;;;;;;2586939;54;20247;31
2022/07/28 08:27:31;;;;;;;6.07;1.05;;;27.60;90.20;;;;;;2586911;54;20857;31
2022/07/28 08:30:06;;;;;;;2.60;1.20;;;27.70;90.50;;;;;;2586650;54;20845;31
2022/07/28 08:32:40;;;;;;;3.50;1.05;;;27.80;90.20;;;;;;2586604;54;20883;31
2022/07/28 08:35:16;;;;;;;3.78;0.90;;;28.00;90.20;;;;;;2586827;54;20030;31
2022/07/28 08:38:11;;;;;;;3.85;1.10;;;28.10;88.40;;;;;;2586712;54;20046;31
2022/07/28 08:40:46;;;;;;;3.30;1.00;;;28.10;88.30;;;;;;2586548;54;20097;31
2022/07/28 08:43:21;;;;;;;;;;;28.30;89.10;;;;;;2587031;54;20159;31
2022/07/28 08:45:54;;;;;;;3.22;1.25;;;28.40;86.90;;;;;;2603590;46;20009;31
2022/07/28 08:48:35;;;;;;;3.95;0.80;;;28.50;86.70;;;;;;2587044;54;20732;31
2022/07/28 08:51:15;;;;;;;3.43;1.03;;;28.60;85.20;;;;;;2586730;54;20031;31
2022/07/28 08:53:47;;;;;;;4.00;1.30;;;28.60;85.40;;;;;;2589954;46;20343;31
2022/07/28 08:56:22;;;;;;;4.30;0.90;;;28.60;86.50;;;;;;2586698;54;20513;31
2022/07/28 08:58:55;;;;;;;4.47;1.10;;;28.70;83.40;;;;;;2683838;39;21302;31
2022/07/28 09:01:28;;;;;;;5.57;1.17;;;28.40;83.70;;;;;;2585935;54;20770;31
2022/07/28 09:04:12;;;;;;;2.45;1.05;;;28.50;83.50;;;;;;2586691;54;20867;31
2022/07/28 09:06:48;;;;;;;6.82;1.15;;;28.30;83.40;;;;;;2586813;54;20786;31
2022/07/28 09:09:21;;;;;;;2.35;0.93;;;28.10;83.10;;;;;;2585691;54;20115;31
2022/07/28 09:11:57;;;;;;;2.95;0.80;;;28.30;83.70;;;;;;2586385;54;20824;31
2022/07/28 09:14:32;;;;;;;5.27;1.00;;;28.50;83.70;;;;;;2586733;54;20932;31
2022/07/28 09:17:09;;;;;;;5.95;1.25;;;28.60;81.70;;;;;;2684590;39;20508;31
2022/07/28 09:19:41;;;;;;;3.78;0.82;;;28.60;85.10;;;;;;2586734;54;20089;31
2022/07/28 09:22:21;;;;;;;4.95;0.73;;;28.50;83.60;;;;;;2586698;54;20892;31
2022/07/28 09:25:01;;;;;;;3.53;0.90;;;28.60;81.10;;;;;;2605165;46;20461;31
2022/07/28 09:27:44;;;;;;;3.17;0.90;;;28.60;81.30;;;;;;2605017;46;20602;31
2022/07/28 09:30:18;;;;;;;3.35;0.90;;;28.50;81.60;;;;;;2586639;54;20893;31
2022/07/28 09:32:52;;;;;;;5.40;0.93;;;28.40;81.30;;;;;;2604871;46;20030;31
2022/07/28 09:35:27;;;;;;;2.15;0.80;;;28.10;81.00;;;;;;2586796;54;20790;31
2022/07/28 09:38:04;;;;;;;4.93;0.90;;;28.00;82.30;;;;;;2586432;54;20049;31
2022/07/28 09:40:39;;;;;;;2.45;1.02;;;27.80;82.00;;;;;;2586608;54;20843;31
2022/07/28 09:43:14;;;;;;;2.70;0.85;;;27.80;82.10;;;;;;2586798;54;20819;31
2022/07/28 09:45:50;;;;;;;6.17;1.00;;;27.70;82.60;;;;;;2586677;54;20858;31
2022/07/28 09:48:24;;;;;;;4.00;1.20;;;27.80;82.70;;;;;;2586788;54;20784;31
2022/07/28 09:51:02;;;;;;;3.05;0.80;;;27.90;82.10;;;;;;2586748;54;20739;31
2022/07/28 09:53:42;;;;;;;4.40;1.20;;;27.90;81.50;;;;;;2585531;54;20048;31
2022/07/28 09:56:16;;;;;;;3.10;0.97;;;27.90;82.00;;;;;;2586419;54;20257;31
2022/07/28 09:58:55;;;;;;;3.40;0.90;;;28.10;82.70;;;;;;2586513;54;20030;31
2022/07/28 10:01:31;;;;;;;5.40;1.25;;;27.90;85.50;;;;;;2586510;54;20073;31
2022/07/28 10:04:08;;;;;;;3.17;1.03;;;27.90;82.40;;;;;;2586349;54;20929;31
2022/07/28 10:06:44;;;;;;;2.73;0.70;;;27.90;82.10;;;;;;2586326;54;20694;31
2022/07/28 10:09:28;;;;;;;3.65;1.00;;;27.90;81.90;;;;;;2586556;54;20833;31
2022/07/28 10:12:18;;;;;;;4.75;1.10;;;27.90;81.20;;;;;;2605109;46;20070;31
2022/07/28 10:14:53;;;;;;;6.40;1.30;;;27.80;80.50;;;;;;2586579;54;20816;31
2022/07/28 10:17:29;;;;;;;7.45;1.35;;;27.70;81.50;;;;;;2586523;54;20514;31
2022/07/28 10:20:04;;;;;;;3.40;0.80;;;27.70;81.50;;;;;;2684652;39;21322;31
2022/07/28 10:22:39;;;;;;;3.10;0.80;;;27.80;83.70;;;;;;2586523;54;20838;31
2022/07/28 10:25:23;;;;;;;3.97;0.82;;;27.80;81.70;;;;;;2604770;46;20038;31
2022/07/28 10:27:55;;;;;;;3.50;1.00;;;27.70;80.00;;;;;;2586722;54;20829;31
2022/07/28 10:30:30;;;;;;;3.17;0.57;;;27.80;81.00;;;;;;2684237;39;21576;31
2022/07/28 10:33:09;;;;;;;4.63;0.60;;;27.90;82.20;;;;;;2586506;54;21034;31
2022/07/28 10:35:46;;;;;;;9.45;1.30;;;28.10;81.30;;;;;;2586571;54;20342;31
2022/07/28 10:38:28;;;;;;;4.50;0.85;;;28.20;80.80;;;;;;2586633;54;20798;31
2022/07/28 10:41:05;;;;;;;1.00;0.45;;;28.10;80.90;;;;;;2586348;54;20034;31
2022/07/28 10:43:40;;;;;;;2.40;0.70;;;28.00;80.50;;;;;;2586474;54;20856;31
2022/07/28 10:46:16;;;;;;;2.67;0.70;;;28.10;79.10;;;;;;2586507;54;21173;31
2022/07/28 10:48:50;;;;;;;3.90;0.80;;;28.00;79.80;;;;;;2683831;39;20390;31
2022/07/28 10:51:27;;;;;;;3.50;0.98;;;27.90;81.40;;;;;;2586417;54;20901;31
2022/07/28 10:54:02;;;;;;;3.22;1.00;;;27.90;82.30;;;;;;2586186;54;20144;31
2022/07/28 10:56:49;;;;;;;3.15;0.90;;;27.80;80.30;;;;;;2586548;54;20786;31
2022/07/28 10:59:50;;;;;;;2.22;0.73;;;27.70;81.60;;;;;;2585971;54;20053;31
2022/07/28 11:02:45;;;;;;;3.93;1.10;;;27.70;80.80;;;;;;2586189;54;20157;31
2022/07/28 11:05:36;;;;;;;3.70;1.00;;;27.70;80.30;;;;;;2586610;54;20882;31
2022/07/28 11:08:11;;;;;;;1.55;0.70;;;27.70;82.60;;;;;;2586199;54;21159;31
2022/07/28 11:10:48;;;;;;;;;;;27.80;80.30;;;;;;2586787;54;20887;31
2022/07/28 11:13:29;;;;;;;3.80;0.90;;;27.90;79.40;;;;;;2586327;54;20791;31
2022/07/28 11:16:20;;;;;;;4.13;0.57;;;28.00;79.90;;;;;;2604914;46;20085;31
2022/07/28 11:19:10;;;;;;;3.80;0.80;;;28.00;79.30;;;;;;2586078;54;20026;31
2022/07/28 11:22:27;;;;;;;2.10;0.75;;;28.00;78.40;;;;;;2586298;54;20809;31
2022/07/28 11:25:15;;;;;;;4.55;0.70;;;27.90;78.20;;;;;;2585892;54;20038;31
2022/07/28 11:28:06;;;;;;;2.72;0.75;;;27.90;79.30;;;;;;2586271;54;20852;31
2022/07/28 11:31:04;;;;;;;2.33;0.60;;;27.80;78.70;;;;;;2586132;54;20045;31
2022/07/28 11:33:57;;;;;;;3.60;0.52;;;27.80;78.70;;;;;;2586199;54;20034;31
2022/07/28 11:37:14;;;;;;;5.15;0.70;;;27.90;77.90;;;;;;2586547;54;21244;31
2022/07/28 11:39:48;;;;;;;1.40;0.60;;;27.80;79.30;;;;;;2586837;54;20792;31
2022/07/28 11:42:28;;;;;;;3.40;0.83;;;27.70;78.50;;;;;;2587209;54;20038;31
2022/07/28 11:45:25;;;;;;;1.40;0.52;;;27.70;78.90;;;;;;2604693;46;20400;31
2022/07/28 11:48:20;;;;;;;4.90;0.73;;;27.50;78.50;;;;;;2587045;54;20881;31
2022/07/28 11:51:12;;;;;;;3.33;0.63;;;27.50;78.90;;;;;;2605180;46;20493;31
2022/07/28 11:53:52;;;;;;;2.45;0.70;;;27.50;78.10;;;;;;2587244;54;20076;31
2022/07/28 11:56:25;;;;;;;2.80;0.63;;;27.60;78.10;;;;;;2587014;54;20061;31
2022/07/28 11:59:00;;;;;;;2.50;0.80;;;27.50;78.10;;;;;;2587096;54;21011;31
2022/07/28 12:01:36;;;;;;;3.13;0.70;;;27.40;77.60;;;;;;2587126;54;21611;31
2022/07/28 12:04:15;;;;;;;4.80;0.90;;;27.40;79.10;;;;;;2605449;46;20946;31
2022/07/28 12:06:51;;;;;;;3.85;0.70;;;27.30;78.50;;;;;;2605076;46;21148;31
2022/07/28 12:09:36;;;;;;;4.32;0.70;;;27.20;78.40;;;;;;2587018;54;20058;31
2022/07/28 12:12:16;;;;;;;2.10;0.70;;;27.20;78.30;;;;;;2605026;46;20764;31
2022/07/28 12:14:50;;;;;;;2.65;0.45;;;27.30;79.40;;;;;;2587042;54;20732;31
2022/07/28 12:17:25;;;;;;;2.78;0.82;;;27.40;78.40;;;;;;2586950;54;20483;31
2022/07/28 12:20:01;;;;;;;;;;;27.50;78.70;;;;;;2587196;54;20941;31
2022/07/28 12:22:34;;;;;;;2.30;0.70;;;27.50;77.90;;;;;;2604908;46;20742;31
2022/07/28 12:25:11;;;;;;;2.22;0.65;;;27.50;79.80;;;;;;2586457;54;20026;31
2022/07/28 12:27:46;;;;;;;3.80;0.60;;;27.30;77.40;;;;;;2586962;54;20875;31
2022/07/28 12:30:27;;;;;;;4.97;0.90;;;27.20;77.90;;;;;;2605320;46;20043;31
2022/07/28 12:33:03;;;;;;;3.20;0.90;;;27.10;78.30;;;;;;2684349;39;20609;31
2022/07/28 12:35:39;;;;;;;2.20;0.80;;;27.10;78.40;;;;;;2586048;54;21638;31
2022/07/28 12:38:11;;;;;;;4.93;0.80;;;27.10;77.80;;;;;;2586894;54;20833;31
2022/07/28 12:40:45;;;;;;;3.53;0.80;;;27.00;77.60;;;;;;2586956;54;20880;31
2022/07/28 12:43:25;;;;;;;4.65;1.17;;;26.90;77.20;;;;;;2586886;54;20913;31
2022/07/28 12:46:02;;;;;;;4.73;0.80;;;26.80;77.60;;;;;;2586952;54;20859;31
2022/07/28 12:48:38;;;;;;;3.20;0.75;;;26.70;77.50;;;;;;2605458;46;20026;31
2022/07/28 12:51:35;;;;;;;2.00;0.80;;;26.80;77.40;;;;;;2605130;46;20060;31
2022/07/28 12:56:48;;;;;;;3.20;0.85;;;26.70;77.60;;;;;;2587003;54;20926;31
2022/07/28 12:59:22;;;;;;;2.25;0.90;;;26.80;77.70;;;;;;2605160;46;20928;31
2022/07/28 13:01:55;;;;;;;3.92;0.90;;;26.80;78.20;;;;;;2586673;54;20097;31
2022/07/28 13:04:43;;;;;;;3.55;0.75;;;26.80;78.60;;;;;;2586984;54;20048;31
2022/07/28 13:07:29;;;;;;;3.10;0.80;;;26.80;77.10;;;;;;2586683;54;20051;31
2022/07/28 13:10:04;;;;;;;1.30;0.60;;;26.90;77.00;;;;;;2586645;54;20031;31
2022/07/28 13:12:44;;;;;;;4.27;1.10;;;26.90;78.20;;;;;;2586520;54;20268;31
2022/07/28 13:15:19;;;;;;;4.57;1.00;;;26.90;80.00;;;;;;2605188;46;20912;31
2022/07/28 13:17:56;;;;;;;2.13;0.88;;;27.00;77.60;;;;;;2605210;46;20938;31
2022/07/28 13:20:33;;;;;;;4.43;0.70;;;27.00;77.90;;;;;;2604973;46;20030;31
2022/07/28 13:23:10;;;;;;;2.83;0.80;;;26.90;76.60;;;;;;2586837;54;21179;31
2022/07/28 13:25:47;;;;;;;3.00;0.80;;;27.00;77.30;;;;;;2586649;54;20109;31
2022/07/28 13:28:25;;;;;;;3.45;0.80;;;26.90;77.90;;;;;;2586795;54;20897;31
2022/07/28 13:30:58;;;;;;;2.58;0.73;;;26.80;77.80;;;;;;2586619;54;20030;31
2022/07/28 13:33:32;;;;;;;4.25;0.95;;;26.80;77.60;;;;;;2585775;54;20141;31
2022/07/28 13:36:07;;;;;;;5.53;0.65;;;26.80;78.20;;;;;;2586563;54;20110;31
2022/07/28 13:38:44;;;;;;;1.05;0.40;;;26.80;77.30;;;;;;2586819;54;20877;31
2022/07/28 13:41:18;;;;;;;3.92;0.60;;;26.70;76.90;;;;;;2586518;54;20537;31
2022/07/28 13:43:57;;;;;;;2.40;0.60;;;26.70;77.60;;;;;;2586574;54;20012;31
2022/07/28 13:46:31;;;;;;;2.70;0.70;;;26.70;76.80;;;;;;2586927;54;20875;31
2022/07/28 13:49:07;;;;;;;2.15;0.60;;;26.70;77.70;;;;;;2586445;54;20862;31
2022/07/28 13:51:42;;;;;;;3.55;0.90;;;26.70;77.90;;;;;;2586469;54;20037;31
2022/07/28 13:54:18;;;;;;;3.95;0.60;;;26.70;77.30;;;;;;2586468;54;20108;31
2022/07/28 13:56:54;;;;;;;5.25;0.70;;;26.70;77.80;;;;;;2586769;54;20866;31